createdAt,value
2022-10-25T00:01:41.972Z,0.80
2022-10-25T00:04:09.414Z,1.35
2022-10-25T00:06:36.753Z,0.75
2022-10-25T00:09:04.656Z,0.60
2022-10-25T00:11:32.700Z,0.68
2022-10-25T00:14:01.918Z,0.57
2022-10-25T00:16:30.474Z,0.77
2022-10-25T00:18:57.727Z,0.47
2022-10-25T00:21:25.299Z,0.75
2022-10-25T00:23:53.086Z,0.75
2022-10-25T00:26:20.722Z,0.98
2022-10-25T00:28:47.938Z,0.70
2022-10-25T00:31:16.375Z,0.52
2022-10-25T00:33:44.120Z,0.52
2022-10-25T00:36:12.654Z,0.60
2022-10-25T00:38:39.962Z,1.08
2022-10-25T00:41:07.515Z,0.38
2022-10-25T00:43:39.000Z,0.40
2022-10-25T00:46:08.434Z,0.50
2022-10-25T00:48:35.815Z,0.32
2022-10-25T00:51:03.544Z,0.50
2022-10-25T00:53:33.365Z,0.60
2022-10-25T00:56:04.592Z,0.60
2022-10-25T00:58:34.600Z,0.95
2022-10-25T01:01:02.622Z,0.77
2022-10-25T01:03:29.989Z,0.90
2022-10-25T01:05:59.117Z,0.47
2022-10-25T01:08:26.826Z,0.70
2022-10-25T01:10:54.111Z,0.60
2022-10-25T01:13:21.425Z,0.70
2022-10-25T01:15:56.812Z,0.68
2022-10-25T01:18:28.561Z,1.30
2022-10-25T01:21:04.609Z,1.17
2022-10-25T01:23:43.982Z,1.10
2022-10-25T01:26:22.550Z,1.00
2022-10-25T01:28:52.722Z,0.57
2022-10-25T01:31:19.902Z,0.75
2022-10-25T01:33:56.254Z,0.80
2022-10-25T01:36:26.284Z,0.80
2022-10-25T01:39:01.622Z,0.88
2022-10-25T01:41:31.315Z,0.80
2022-10-25T01:44:07.958Z,0.68
2022-10-25T01:46:44.645Z,0.60
2022-10-25T01:49:18.188Z,0.82
2022-10-25T01:51:45.362Z,0.45
2022-10-25T01:54:24.937Z,0.82
2022-10-25T01:57:10.606Z,0.70
2022-10-25T01:59:43.964Z,1.13
2022-10-25T02:02:11.139Z,0.60
2022-10-25T02:05:17.001Z,0.50
2022-10-25T02:07:46.451Z,1.05
2022-10-25T02:10:19.342Z,1.02
2022-10-25T02:12:52.754Z,0.98
2022-10-25T02:15:23.711Z,0.85
2022-10-25T02:17:54.295Z,0.75
2022-10-25T02:20:23.297Z,0.70
2022-10-25T02:22:52.346Z,0.80
2022-10-25T02:25:20.023Z,0.88
2022-10-25T02:27:47.607Z,0.65
2022-10-25T02:30:15.071Z,0.82
2022-10-25T02:32:42.399Z,0.60
2022-10-25T02:35:14.304Z,0.60
2022-10-25T02:37:41.509Z,1.10
2022-10-25T02:40:09.941Z,1.20
2022-10-25T02:42:37.212Z,0.73
2022-10-25T02:45:04.589Z,0.73
2022-10-25T02:47:31.944Z,1.30
2022-10-25T02:49:59.303Z,1.27
2022-10-25T02:52:26.571Z,0.75
2022-10-25T02:54:53.857Z,0.73
2022-10-25T02:57:21.075Z,1.75
2022-10-25T02:59:48.256Z,0.68
2022-10-25T03:02:15.432Z,0.80
2022-10-25T03:04:45.527Z,0.52
2022-10-25T03:07:12.717Z,0.68
2022-10-25T03:09:39.924Z,0.50
2022-10-25T03:12:07.158Z,1.05
2022-10-25T03:14:34.527Z,0.52
2022-10-25T03:17:01.749Z,1.08
2022-10-25T03:19:28.910Z,0.70
2022-10-25T03:21:56.069Z,0.80
2022-10-25T03:24:23.258Z,0.80
2022-10-25T03:26:50.494Z,0.65
2022-10-25T03:29:17.825Z,0.50
2022-10-25T03:31:45.044Z,0.50
2022-10-25T03:34:12.267Z,0.50
2022-10-25T03:36:39.460Z,0.60
2022-10-25T03:39:06.685Z,0.80
2022-10-25T03:41:34.150Z,0.55
2022-10-25T03:44:01.373Z,0.60
2022-10-25T03:46:28.663Z,0.65
2022-10-25T03:48:55.849Z,0.80
2022-10-25T03:51:23.055Z,0.40
2022-10-25T03:53:50.664Z,0.70
2022-10-25T03:56:17.872Z,1.00
2022-10-25T03:58:45.092Z,0.70
2022-10-25T04:01:12.447Z,1.08
2022-10-25T04:03:39.840Z,1.95
2022-10-25T04:06:07.311Z,0.90
2022-10-25T04:08:34.500Z,1.77
2022-10-25T04:11:01.808Z,0.55
2022-10-25T04:13:29.131Z,0.90
2022-10-25T04:15:56.419Z,0.80
2022-10-25T04:18:23.656Z,0.60
2022-10-25T04:20:50.852Z,0.82
2022-10-25T04:23:18.074Z,0.77
2022-10-25T04:25:45.327Z,1.15
2022-10-25T04:28:12.519Z,0.88
2022-10-25T04:30:39.764Z,0.70
2022-10-25T04:33:07.063Z,0.80
2022-10-25T04:35:34.280Z,1.50
2022-10-25T04:38:01.494Z,0.85
2022-10-25T04:40:28.648Z,0.90
2022-10-25T04:42:55.871Z,0.63
2022-10-25T04:45:23.063Z,0.50
2022-10-25T04:47:50.220Z,0.73
2022-10-25T04:50:17.453Z,1.00
2022-10-25T04:52:44.861Z,1.33
2022-10-25T04:55:12.249Z,0.70
2022-10-25T04:57:39.420Z,0.57
2022-10-25T05:00:06.885Z,0.55
2022-10-25T05:02:34.204Z,1.00
2022-10-25T05:05:01.430Z,0.50
2022-10-25T05:07:28.638Z,0.60
2022-10-25T05:09:55.824Z,0.77
2022-10-25T05:12:24.452Z,0.70
2022-10-25T05:14:51.707Z,1.00
2022-10-25T05:17:18.922Z,0.73
2022-10-25T05:19:46.111Z,0.85
2022-10-25T05:22:13.387Z,0.70
2022-10-25T05:24:40.625Z,0.88
2022-10-25T05:27:07.845Z,0.73
2022-10-25T05:29:35.766Z,0.80
2022-10-25T05:32:03.127Z,0.50
2022-10-25T05:34:30.299Z,0.68
2022-10-25T05:36:58.192Z,0.70
2022-10-25T05:39:25.429Z,0.73
2022-10-25T05:41:52.864Z,0.93
2022-10-25T05:44:20.168Z,0.93
2022-10-25T05:46:47.459Z,0.80
2022-10-25T05:49:14.737Z,0.50
2022-10-25T05:51:41.970Z,0.95
2022-10-25T05:54:13.276Z,0.65
2022-10-25T05:56:41.037Z,0.75
2022-10-25T05:59:09.617Z,0.90
2022-10-25T06:01:38.001Z,0.88
2022-10-25T06:04:05.619Z,0.60
2022-10-25T06:06:32.843Z,1.50
2022-10-25T06:09:01.244Z,0.50
2022-10-25T06:11:28.897Z,0.60
2022-10-25T06:13:56.309Z,0.82
2022-10-25T06:16:24.216Z,0.60
2022-10-25T06:18:51.713Z,0.70
2022-10-25T06:21:20.303Z,0.55
2022-10-25T06:23:48.373Z,0.73
2022-10-25T06:26:16.688Z,0.50
2022-10-25T06:28:44.289Z,0.50
2022-10-25T06:31:13.021Z,0.70
2022-10-25T06:33:40.352Z,0.50
2022-10-25T06:36:08.645Z,0.55
2022-10-25T06:38:35.825Z,0.77
2022-10-25T06:41:04.538Z,0.93
2022-10-25T06:43:32.964Z,0.65
2022-10-25T06:46:05.184Z,0.60
2022-10-25T06:48:32.511Z,0.88
2022-10-25T06:51:03.775Z,0.65
2022-10-25T06:53:31.084Z,1.13
2022-10-25T06:56:06.020Z,0.60
2022-10-25T06:58:35.270Z,0.75
2022-10-25T07:01:13.333Z,0.52
2022-10-25T07:03:41.036Z,1.00
2022-10-25T07:06:09.651Z,1.10
2022-10-25T07:08:37.721Z,0.80
2022-10-25T07:11:05.433Z,0.65
2022-10-25T07:13:33.435Z,0.60
2022-10-25T07:16:07.793Z,1.00
2022-10-25T07:18:35.677Z,0.70
2022-10-25T07:21:03.835Z,0.52
2022-10-25T07:23:31.243Z,0.80
2022-10-25T07:25:58.740Z,0.98
2022-10-25T07:28:26.404Z,0.90
2022-10-25T07:30:54.012Z,0.85
2022-10-25T07:33:21.248Z,0.70
2022-10-25T07:36:06.001Z,0.90
2022-10-25T07:38:36.641Z,0.80
2022-10-25T07:41:03.966Z,0.60
2022-10-25T07:43:31.259Z,0.60
2022-10-25T07:45:58.504Z,0.70
2022-10-25T07:48:25.761Z,1.10
2022-10-25T07:50:53.122Z,1.05
2022-10-25T07:53:20.579Z,0.70
2022-10-25T07:55:52.124Z,0.85
2022-10-25T07:58:19.651Z,0.52
2022-10-25T08:00:47.179Z,0.52
2022-10-25T08:03:15.375Z,0.60
2022-10-25T08:05:44.775Z,0.90
2022-10-25T08:08:12.295Z,0.90
2022-10-25T08:10:39.754Z,0.90
2022-10-25T08:13:07.145Z,0.60
2022-10-25T08:15:36.281Z,0.82
2022-10-25T08:18:03.863Z,0.75
2022-10-25T08:20:56.353Z,1.38
2022-10-25T08:23:18.318Z,0.80
2022-10-25T08:25:45.593Z,0.80
2022-10-25T08:28:12.811Z,1.08
2022-10-25T08:30:40.940Z,0.90
2022-10-25T08:33:11.564Z,0.90
2022-10-25T08:35:39.840Z,1.20
2022-10-25T08:38:07.292Z,0.85
2022-10-25T08:40:53.044Z,0.80
2022-10-25T08:43:39.000Z,0.70
2022-10-25T08:46:13.724Z,0.80
2022-10-25T08:48:43.615Z,0.80
2022-10-25T08:51:29.790Z,0.77
2022-10-25T08:53:59.235Z,0.75
2022-10-25T08:56:27.792Z,0.80
2022-10-25T08:58:57.191Z,2.15
2022-10-25T09:01:34.435Z,0.80
2022-10-25T09:04:02.024Z,0.70
2022-10-25T09:06:39.170Z,0.60
2022-10-25T09:09:25.074Z,0.70
2022-10-25T09:11:58.380Z,0.50
2022-10-25T09:15:02.818Z,0.73
2022-10-25T09:17:35.784Z,0.82
2022-10-25T09:20:19.831Z,0.77
2022-10-25T09:22:51.542Z,1.15
2022-10-25T09:25:22.360Z,0.90
2022-10-25T09:27:52.507Z,0.75
2022-10-25T09:30:19.952Z,1.08
2022-10-25T09:32:50.748Z,0.75
2022-10-25T09:35:19.401Z,0.63
2022-10-25T09:37:49.807Z,0.80
2022-10-25T09:40:20.275Z,1.05
2022-10-25T09:42:50.556Z,4.03
2022-10-25T09:45:20.625Z,0.80
2022-10-25T09:47:50.372Z,0.70
2022-10-25T09:50:40.441Z,1.17
2022-10-25T09:53:13.418Z,0.90
2022-10-25T09:56:01.016Z,0.60
2022-10-25T09:58:40.011Z,0.50
2022-10-25T10:01:09.779Z,0.40
2022-10-25T10:03:37.773Z,0.40
2022-10-25T10:06:26.564Z,0.63
2022-10-25T10:08:54.843Z,1.00
2022-10-25T10:11:22.009Z,1.00
2022-10-25T10:13:57.877Z,0.70
2022-10-25T10:16:27.658Z,0.73
2022-10-25T10:19:15.175Z,0.82
2022-10-25T10:21:46.597Z,0.65
2022-10-25T10:24:17.660Z,0.68
2022-10-25T10:26:51.466Z,0.65
2022-10-25T10:29:22.505Z,0.68
2022-10-25T10:31:52.020Z,1.67
2022-10-25T10:34:26.584Z,0.70
2022-10-25T10:37:26.240Z,0.70
2022-10-25T10:39:57.813Z,1.48
2022-10-25T10:42:25.099Z,0.98
2022-10-25T10:45:04.726Z,0.95
2022-10-25T10:47:34.007Z,0.75
2022-10-25T10:50:01.756Z,0.80
2022-10-25T10:52:36.505Z,1.23
2022-10-25T10:55:03.908Z,1.67
2022-10-25T10:57:32.925Z,1.60
2022-10-25T11:00:01.586Z,1.42
2022-10-25T11:02:40.278Z,0.82
2022-10-25T11:05:26.563Z,0.70
2022-10-25T11:07:55.472Z,0.60
2022-10-25T11:10:24.463Z,1.15
2022-10-25T11:13:10.549Z,0.70
2022-10-25T11:16:00.916Z,0.52
2022-10-25T11:18:43.043Z,0.80
2022-10-25T11:21:30.054Z,0.57
2022-10-25T11:24:09.220Z,0.70
2022-10-25T11:26:45.401Z,0.80
2022-10-25T11:29:32.832Z,1.00
2022-10-25T11:32:18.506Z,0.60
2022-10-25T11:34:48.324Z,0.80
2022-10-25T11:37:26.871Z,0.73
2022-10-25T11:40:03.071Z,0.90
2022-10-25T11:42:39.266Z,1.02
2022-10-25T11:45:15.277Z,0.85
2022-10-25T11:48:05.615Z,0.75
2022-10-25T11:50:32.808Z,0.68
2022-10-25T11:53:19.769Z,0.50
2022-10-25T11:55:50.898Z,1.10
2022-10-25T11:58:21.002Z,1.00
2022-10-25T12:00:54.219Z,0.52
2022-10-25T12:03:25.411Z,1.08
2022-10-25T12:05:55.653Z,0.60
2022-10-25T12:08:31.503Z,0.70
2022-10-25T12:11:03.522Z,0.90
2022-10-25T12:13:39.800Z,1.15
2022-10-25T12:16:10.664Z,0.95
2022-10-25T12:18:40.876Z,0.60
2022-10-25T12:21:09.684Z,0.68
2022-10-25T12:23:42.165Z,0.60
2022-10-25T12:26:28.216Z,0.80
2022-10-25T12:28:57.599Z,0.55
2022-10-25T12:31:26.962Z,0.60
2022-10-25T12:34:14.400Z,0.75
2022-10-25T12:36:43.500Z,0.30
2022-10-25T12:39:17.014Z,0.63
2022-10-25T12:41:44.786Z,0.45
2022-10-25T12:44:14.497Z,0.63
2022-10-25T12:46:44.709Z,0.80
2022-10-25T12:49:33.328Z,0.60
2022-10-25T12:52:09.752Z,0.68
2022-10-25T12:54:49.159Z,0.65
2022-10-25T12:57:17.779Z,0.60
2022-10-25T12:59:50.836Z,0.98
2022-10-25T13:02:36.201Z,0.70
2022-10-25T13:05:06.493Z,0.50
2022-10-25T13:07:34.604Z,0.60
2022-10-25T13:10:06.620Z,1.55
2022-10-25T13:12:33.876Z,0.55
2022-10-25T13:15:01.753Z,0.60
2022-10-25T13:17:41.025Z,0.60
2022-10-25T13:20:20.317Z,0.65
2022-10-25T13:22:47.868Z,0.60
2022-10-25T13:25:15.240Z,0.63
2022-10-25T13:28:01.391Z,0.70
2022-10-25T13:30:32.003Z,0.70
2022-10-25T13:33:18.898Z,0.70
2022-10-25T13:35:46.104Z,0.60
2022-10-25T13:38:20.076Z,0.50
2022-10-25T13:41:05.136Z,0.75
2022-10-25T13:43:32.477Z,0.90
2022-10-25T13:45:59.680Z,0.70
2022-10-25T13:48:26.899Z,0.63
2022-10-25T13:50:55.383Z,0.60
2022-10-25T13:53:24.649Z,0.88
2022-10-25T13:55:59.657Z,0.90
2022-10-25T13:58:32.039Z,0.90
2022-10-25T14:03:48.328Z,0.60
2022-10-25T14:06:24.663Z,0.85
2022-10-25T14:08:51.886Z,0.82
2022-10-25T14:11:36.799Z,1.05
2022-10-25T14:14:13.234Z,0.63
2022-10-25T14:16:55.653Z,0.60
2022-10-25T14:19:25.680Z,0.90
2022-10-25T14:21:54.293Z,0.80
2022-10-25T14:24:22.024Z,0.90
2022-10-25T14:26:59.450Z,0.80
2022-10-25T14:29:28.077Z,0.80
2022-10-25T14:31:56.110Z,1.00
2022-10-25T14:34:24.609Z,0.73
2022-10-25T14:36:53.127Z,0.85
2022-10-25T14:39:23.965Z,0.52
2022-10-25T14:41:58.779Z,0.60
2022-10-25T14:44:30.253Z,0.70
2022-10-25T14:46:58.603Z,0.70
2022-10-25T14:49:26.319Z,0.70
2022-10-25T14:52:11.797Z,1.00
2022-10-25T14:54:39.261Z,0.55
2022-10-25T14:57:07.294Z,0.77
2022-10-25T14:59:42.356Z,0.90
2022-10-25T15:02:18.130Z,1.00
2022-10-25T15:04:50.220Z,0.95
2022-10-25T15:07:30.562Z,0.88
2022-10-25T15:09:58.681Z,1.00
2022-10-25T15:12:26.916Z,1.10
2022-10-25T15:14:55.038Z,0.85
2022-10-25T15:17:22.248Z,0.90
2022-10-25T15:19:59.588Z,0.93
2022-10-25T15:22:31.805Z,0.80
2022-10-25T15:24:59.237Z,0.88
2022-10-25T15:27:41.661Z,1.00
2022-10-25T15:30:28.797Z,1.13
2022-10-25T15:32:56.048Z,1.23
2022-10-25T15:35:24.721Z,0.98
2022-10-25T15:37:52.453Z,1.00
2022-10-25T15:40:19.932Z,1.10
2022-10-25T15:42:47.408Z,1.00
2022-10-25T15:45:15.005Z,1.27
2022-10-25T15:47:42.583Z,1.10
2022-10-25T15:50:19.812Z,1.50
2022-10-25T15:52:47.768Z,1.15
2022-10-25T15:55:26.893Z,1.40
2022-10-25T15:57:55.115Z,1.27
2022-10-25T16:00:27.090Z,1.02
2022-10-25T16:02:55.687Z,1.20
2022-10-25T16:05:24.755Z,1.52
2022-10-25T16:07:52.362Z,1.80
2022-10-25T16:10:20.737Z,1.42
2022-10-25T16:12:50.085Z,1.15
2022-10-25T16:15:18.577Z,2.90
2022-10-25T16:17:49.378Z,2.50
2022-10-25T16:20:16.699Z,1.17
2022-10-25T16:22:44.035Z,1.90
2022-10-25T16:25:11.309Z,0.93
2022-10-25T16:27:38.588Z,1.65
2022-10-25T16:30:06.097Z,1.70
2022-10-25T16:32:33.294Z,1.60
2022-10-25T16:35:00.519Z,1.20
2022-10-25T16:37:27.723Z,1.38
2022-10-25T16:39:54.924Z,1.50
2022-10-25T16:42:26.949Z,1.50
2022-10-25T16:44:54.120Z,1.23
2022-10-25T16:47:24.422Z,1.70
2022-10-25T16:49:51.873Z,3.47
2022-10-25T16:52:19.601Z,5.53
2022-10-25T16:54:47.055Z,3.40
2022-10-25T16:57:17.205Z,5.15
2022-10-25T16:59:44.477Z,3.30
2022-10-25T17:02:17.528Z,3.30
2022-10-25T17:04:44.879Z,1.98
2022-10-25T17:07:12.141Z,2.45
2022-10-25T17:09:39.376Z,2.58
2022-10-25T17:12:06.693Z,2.28
2022-10-25T17:14:34.944Z,1.88
2022-10-25T17:17:03.269Z,2.17
2022-10-25T17:19:30.694Z,1.92
2022-10-25T17:21:57.922Z,1.90
2022-10-25T17:24:25.452Z,1.55
2022-10-25T17:26:52.770Z,1.55
2022-10-25T17:29:20.197Z,1.35
2022-10-25T17:31:47.472Z,1.17
2022-10-25T17:34:14.675Z,0.98
2022-10-25T17:36:42.255Z,1.08
2022-10-25T17:39:10.756Z,0.93
2022-10-25T17:41:37.995Z,1.15
2022-10-25T17:44:05.192Z,1.15
2022-10-25T17:46:33.064Z,1.20
2022-10-25T17:49:05.790Z,1.13
2022-10-25T17:54:00.316Z,0.95
2022-10-25T17:56:28.275Z,1.67
2022-10-25T17:58:56.014Z,1.17
2022-10-25T18:01:25.340Z,0.90
2022-10-25T18:03:52.903Z,1.23
2022-10-25T18:08:54.281Z,0.88
2022-10-25T18:11:22.753Z,1.00
2022-10-25T18:13:50.604Z,1.02
2022-10-25T18:16:17.918Z,1.20
2022-10-25T18:18:45.174Z,0.90
2022-10-25T18:21:13.683Z,0.88
2022-10-25T18:23:41.430Z,1.10
2022-10-25T18:26:11.017Z,0.82
2022-10-25T18:28:38.378Z,0.75
2022-10-25T18:31:07.228Z,1.00
2022-10-25T18:33:35.274Z,1.30
2022-10-25T18:36:10.774Z,1.70
2022-10-25T18:38:38.044Z,1.20
2022-10-25T18:41:09.431Z,1.17
2022-10-25T18:43:36.877Z,1.45
2022-10-25T18:46:04.113Z,1.48
2022-10-25T18:48:31.621Z,1.00
2022-10-25T18:51:08.919Z,1.25
2022-10-25T18:53:36.353Z,1.35
2022-10-25T18:56:03.580Z,1.55
2022-10-25T18:58:31.642Z,1.10
2022-10-25T19:01:06.410Z,0.75
2022-10-25T19:03:33.805Z,1.13
2022-10-25T19:06:01.114Z,1.00
2022-10-25T19:08:28.553Z,1.23
2022-10-25T19:10:55.894Z,0.90
2022-10-25T19:13:23.223Z,1.30
2022-10-25T19:15:50.490Z,1.30
2022-10-25T19:18:17.764Z,0.95
2022-10-25T19:20:46.472Z,1.45
2022-10-25T19:23:13.951Z,0.93
2022-10-25T19:25:41.409Z,1.17
2022-10-25T19:28:08.717Z,1.40
2022-10-25T19:30:40.374Z,1.00
2022-10-25T19:33:07.871Z,1.50
2022-10-25T19:35:35.087Z,1.08
2022-10-25T19:38:02.352Z,1.00
2022-10-25T19:40:29.591Z,1.40
2022-10-25T19:42:56.804Z,1.48
2022-10-25T19:45:24.415Z,1.23
2022-10-25T19:47:55.892Z,1.33
2022-10-25T19:50:23.963Z,1.30
2022-10-25T19:52:51.932Z,1.60
2022-10-25T19:55:19.214Z,1.00
2022-10-25T19:57:46.850Z,0.80
2022-10-25T20:00:14.818Z,1.08
2022-10-25T20:02:42.112Z,0.85
2022-10-25T20:07:41.684Z,0.82
2022-10-25T20:10:08.973Z,1.10
2022-10-25T20:12:36.200Z,0.77
2022-10-25T20:15:03.531Z,1.00
2022-10-25T20:17:30.729Z,1.30
2022-10-25T20:19:57.988Z,0.90
2022-10-25T20:22:25.335Z,1.80
2022-10-25T20:24:55.023Z,1.15
2022-10-25T20:27:22.231Z,1.10
2022-10-25T20:29:49.453Z,1.60
2022-10-25T20:32:16.724Z,1.25
2022-10-25T20:34:43.930Z,1.75
2022-10-25T20:37:11.205Z,1.40
2022-10-25T20:39:38.848Z,1.63
2022-10-25T20:42:06.079Z,1.35
2022-10-25T20:44:33.321Z,1.75
2022-10-25T20:47:00.574Z,1.52
2022-10-25T20:49:27.878Z,1.65
2022-10-25T20:51:55.163Z,1.45
2022-10-25T20:54:22.454Z,0.90
2022-10-25T20:56:49.741Z,1.50
2022-10-25T20:59:17.035Z,1.17
2022-10-25T21:01:44.354Z,1.15
2022-10-25T21:04:11.672Z,1.20
2022-10-25T21:06:38.886Z,1.65
2022-10-25T21:09:06.316Z,1.67
2022-10-25T21:11:33.557Z,1.58
2022-10-25T21:14:00.846Z,1.40
2022-10-25T21:16:28.191Z,1.38
2022-10-25T21:18:55.406Z,2.22
2022-10-25T21:21:22.685Z,1.65
2022-10-25T21:23:54.652Z,1.23
2022-10-25T21:26:21.876Z,1.20
2022-10-25T21:28:49.060Z,1.77
2022-10-25T21:31:16.785Z,1.60
2022-10-25T21:33:49.969Z,1.63
2022-10-25T21:36:18.617Z,1.40
2022-10-25T21:38:45.838Z,1.85
2022-10-25T21:41:13.195Z,1.65
2022-10-25T21:43:44.845Z,1.60
2022-10-25T21:46:12.289Z,2.00
2022-10-25T21:48:39.526Z,1.30
2022-10-25T21:51:06.856Z,1.33
2022-10-25T21:53:34.437Z,1.88
2022-10-25T21:56:10.508Z,1.60
2022-10-25T21:58:38.398Z,1.95
2022-10-25T22:01:12.809Z,1.20
2022-10-25T22:03:40.192Z,1.67
2022-10-25T22:06:08.013Z,1.80
2022-10-25T22:08:35.409Z,1.67
2022-10-25T22:11:03.689Z,1.52
2022-10-25T22:13:30.898Z,1.45
2022-10-25T22:16:03.231Z,1.50
2022-10-25T22:18:30.497Z,1.23
2022-10-25T22:20:59.008Z,1.48
2022-10-25T22:23:27.079Z,1.30
2022-10-25T22:25:54.349Z,2.20
2022-10-25T22:28:21.557Z,2.08
2022-10-25T22:30:48.748Z,1.58
2022-10-25T22:33:15.935Z,1.40
2022-10-25T22:35:43.140Z,1.60
2022-10-25T22:38:14.800Z,1.48
2022-10-25T22:40:41.972Z,1.65
2022-10-25T22:43:09.247Z,1.10
2022-10-25T22:45:36.512Z,1.52
2022-10-25T22:48:03.729Z,1.52
2022-10-25T22:50:30.923Z,1.23
2022-10-25T22:52:58.161Z,1.55
2022-10-25T22:55:27.763Z,1.58
2022-10-25T22:57:55.921Z,1.50
2022-10-25T23:00:23.220Z,1.63
2022-10-25T23:02:50.623Z,1.77
2022-10-25T23:05:18.062Z,1.77
2022-10-25T23:07:45.244Z,1.20
2022-10-25T23:10:14.419Z,1.73
2022-10-25T23:12:41.707Z,1.52
2022-10-25T23:15:09.018Z,1.80
2022-10-25T23:17:36.214Z,1.15
2022-10-25T23:20:03.487Z,1.70
2022-10-25T23:22:31.050Z,1.73
2022-10-25T23:24:58.209Z,1.35
2022-10-25T23:27:25.388Z,1.08
2022-10-25T23:29:52.552Z,1.27
2022-10-25T23:32:21.868Z,0.88
2022-10-25T23:34:50.012Z,1.40
2022-10-25T23:37:18.775Z,1.35
2022-10-25T23:39:45.931Z,1.40
2022-10-25T23:42:13.060Z,2.00
2022-10-25T23:44:40.316Z,1.38
2022-10-25T23:47:07.472Z,1.38
2022-10-25T23:49:34.592Z,1.35
2022-10-25T23:52:01.715Z,1.40
2022-10-25T23:54:28.847Z,1.45
2022-10-25T23:56:56.033Z,1.42
2022-10-25T23:59:25.896Z,1.55
